createdAt,value
2019-04-04T00:01:10.579Z,98928.84
2019-04-04T00:03:41.858Z,98928.83
2019-04-04T00:06:13.222Z,98925.77
2019-04-04T00:08:44.615Z,98924.00
2019-04-04T00:11:15.925Z,98927.47
2019-04-04T00:13:47.270Z,98932.21
2019-04-04T00:16:18.573Z,98936.58
2019-04-04T00:18:49.906Z,98926.52
2019-04-04T00:21:21.201Z,98911.66
2019-04-04T00:23:52.506Z,98908.56
2019-04-04T00:26:23.814Z,98911.61
2019-04-04T00:28:55.165Z,98920.77
2019-04-04T00:31:26.602Z,98920.77
2019-04-04T00:33:57.978Z,98927.34
2019-04-04T00:36:29.339Z,98916.84
2019-04-04T00:39:00.924Z,98914.67
2019-04-04T00:41:33.792Z,98915.98
2019-04-04T00:44:06.739Z,98912.42
2019-04-04T00:46:38.077Z,98905.45
2019-04-04T00:49:10.959Z,98887.95
2019-04-04T00:51:42.429Z,98885.77
2019-04-04T00:54:14.011Z,98890.14
2019-04-04T00:56:46.888Z,98884.04
2019-04-04T00:59:18.961Z,98880.56
2019-04-04T01:01:50.298Z,98870.98
2019-04-04T01:04:21.532Z,98866.63
2019-04-04T01:06:52.770Z,98864.90
2019-04-04T01:09:24.140Z,98855.73
2019-04-04T01:11:55.496Z,98845.27
2019-04-04T01:14:27.161Z,98849.64
2019-04-04T01:16:59.953Z,98850.96
2019-04-04T01:19:31.494Z,98845.72
2019-04-04T01:22:02.744Z,98838.73
2019-04-04T01:24:34.229Z,98824.32
2019-04-04T01:27:06.321Z,98806.48
2019-04-04T01:29:40.923Z,98799.95
2019-04-04T01:32:12.466Z,98803.03
2019-04-04T01:34:43.738Z,98805.24
2019-04-04T01:37:15.160Z,98806.09
2019-04-04T01:39:46.508Z,98806.95
2019-04-04T01:42:17.805Z,98800.84
2019-04-04T01:44:49.099Z,98802.58
2019-04-04T01:47:20.395Z,98815.22
2019-04-04T01:49:52.661Z,98827.81
2019-04-04T01:52:24.028Z,98822.55
2019-04-04T01:54:55.374Z,98805.94
2019-04-04T01:57:26.631Z,98790.25
2019-04-04T01:59:58.058Z,98783.28
2019-04-04T02:02:29.355Z,98791.64
2019-04-04T02:05:00.640Z,98809.98
2019-04-04T02:07:31.955Z,98812.16
2019-04-04T02:10:05.304Z,98815.17
2019-04-04T02:12:38.513Z,98795.94
2019-04-04T02:15:13.771Z,98777.61
2019-04-04T02:17:45.097Z,98784.22
2019-04-04T02:20:16.513Z,98782.05
2019-04-04T02:22:47.883Z,98775.06
2019-04-04T02:25:19.251Z,98777.25
2019-04-04T02:27:50.560Z,98781.63
2019-04-04T02:30:21.834Z,98779.00
2019-04-04T02:32:53.185Z,98771.14
2019-04-04T02:35:24.554Z,98774.63
2019-04-04T02:37:56.197Z,98785.99
2019-04-04T02:40:27.580Z,98778.12
2019-04-04T02:42:58.876Z,98775.08
2019-04-04T02:45:30.183Z,98773.77
2019-04-04T02:48:01.514Z,98771.15
2019-04-04T02:50:35.562Z,98770.28
2019-04-04T02:53:06.735Z,98773.78
2019-04-04T02:55:41.610Z,98777.27
2019-04-04T02:58:15.253Z,98775.96
2019-04-04T03:00:46.857Z,98771.59
2019-04-04T03:03:18.276Z,98763.73
2019-04-04T03:05:51.972Z,98770.73
2019-04-04T03:08:22.899Z,98775.09
2019-04-04T03:10:54.334Z,98772.47
2019-04-04T03:13:25.679Z,98770.73
2019-04-04T03:15:57.048Z,98770.73
2019-04-04T03:18:28.332Z,98763.30
2019-04-04T03:20:59.607Z,98758.48
2019-04-04T03:23:33.863Z,98754.55
2019-04-04T03:26:03.921Z,98741.44
2019-04-04T03:28:35.369Z,98719.16
2019-04-04T03:31:06.701Z,98703.45
2019-04-04T03:33:38.259Z,98685.97
2019-04-04T03:36:10.628Z,98686.42
2019-04-04T03:38:47.155Z,98682.06
2019-04-04T03:41:16.811Z,98684.67
2019-04-04T03:43:49.100Z,98685.11
2019-04-04T03:46:20.781Z,98690.78
2019-04-04T03:48:52.191Z,98700.40
2019-04-04T03:51:25.956Z,98703.89
2019-04-04T03:53:59.125Z,98691.22
2019-04-04T03:56:33.254Z,98676.80
2019-04-04T03:59:03.750Z,98654.09
2019-04-04T04:01:35.528Z,98645.36
2019-04-04T04:04:07.111Z,98646.67
2019-04-04T04:06:41.299Z,98658.89
2019-04-04T04:09:11.447Z,98660.64
2019-04-04T04:11:42.921Z,98661.52
2019-04-04T04:14:15.297Z,98674.19
2019-04-04T04:16:48.274Z,98673.31
2019-04-04T04:19:24.048Z,98681.61
2019-04-04T04:21:56.860Z,98687.73
2019-04-04T04:24:29.533Z,98685.11
2019-04-04T04:27:01.402Z,98692.53
2019-04-04T04:29:34.320Z,98701.70
2019-04-04T04:32:05.732Z,98696.47
2019-04-04T04:34:37.212Z,98686.86
2019-04-04T04:37:08.681Z,98678.12
2019-04-04T04:39:41.438Z,98671.56
2019-04-04T04:42:13.021Z,98673.74
2019-04-04T04:44:44.252Z,98675.05
2019-04-04T04:47:15.617Z,98678.11
2019-04-04T04:49:46.922Z,98678.55
2019-04-04T04:52:19.167Z,98686.41
2019-04-04T04:54:52.335Z,98691.66
2019-04-04T04:57:29.911Z,98695.16
2019-04-04T04:59:56.565Z,98697.78
2019-04-04T05:02:27.920Z,98682.93
2019-04-04T05:04:59.391Z,98675.51
2019-04-04T05:07:31.471Z,98665.45
2019-04-04T05:10:02.843Z,98668.52
2019-04-04T05:12:34.245Z,98668.95
2019-04-04T05:15:09.458Z,98668.95
2019-04-04T05:17:42.092Z,98661.09
2019-04-04T05:20:14.068Z,98660.22
2019-04-04T05:22:45.600Z,98655.41
2019-04-04T05:25:16.813Z,98656.72
2019-04-04T05:27:48.132Z,98664.58
2019-04-04T05:30:20.435Z,98661.08
2019-04-04T05:32:56.042Z,98654.09
2019-04-04T05:35:25.141Z,98661.95
2019-04-04T05:37:56.448Z,98675.05
2019-04-04T05:40:30.506Z,98669.36
2019-04-04T05:43:04.792Z,98675.47
2019-04-04T05:45:36.322Z,98668.05
2019-04-04T05:48:07.626Z,98678.09
2019-04-04T05:50:38.883Z,98675.42
2019-04-04T05:53:10.990Z,98687.64
2019-04-04T05:55:42.484Z,98688.96
2019-04-04T05:58:15.044Z,98698.17
2019-04-04T06:00:47.156Z,98692.94
2019-04-04T06:03:18.528Z,98691.63
2019-04-04T06:05:49.967Z,98695.56
2019-04-04T06:08:21.492Z,98687.27
2019-04-04T06:10:53.766Z,98684.64
2019-04-04T06:13:26.958Z,98693.81
2019-04-04T06:16:00.124Z,98685.52
2019-04-04T06:18:31.410Z,98689.01
2019-04-04T06:21:02.753Z,98699.00
2019-04-04T06:23:37.187Z,98705.98
2019-04-04T06:26:08.531Z,98704.25
2019-04-04T06:28:39.912Z,98709.92
2019-04-04T06:31:11.207Z,98716.03
2019-04-04T06:33:42.487Z,98705.10
2019-04-04T06:36:13.769Z,98702.91
2019-04-04T06:39:00.197Z,98700.70
2019-04-04T06:41:32.395Z,98696.75
2019-04-04T06:44:04.247Z,98684.07
2019-04-04T06:46:35.542Z,98680.57
2019-04-04T06:49:06.887Z,98684.93
2019-04-04T06:51:39.300Z,98687.95
2019-04-04T06:54:11.640Z,98693.62
2019-04-04T06:56:43.836Z,98689.25
2019-04-04T06:59:15.151Z,98701.47
2019-04-04T07:01:46.509Z,98705.39
2019-04-04T07:04:17.846Z,98713.25
2019-04-04T07:06:49.144Z,98717.17
2019-04-04T07:09:20.394Z,98719.78
2019-04-04T07:11:51.611Z,98729.40
2019-04-04T07:14:23.038Z,98735.48
2019-04-04T07:16:54.413Z,98735.48
2019-04-04T07:19:25.797Z,98741.59
2019-04-04T07:21:57.009Z,98739.83
2019-04-04T07:24:29.035Z,98743.30
2019-04-04T07:27:01.344Z,98747.20
2019-04-04T07:29:32.599Z,98752.39
2019-04-04T07:32:05.166Z,98744.54
2019-04-04T07:34:36.503Z,98741.01
2019-04-04T07:37:07.731Z,98738.36
2019-04-04T07:39:39.072Z,98736.14
2019-04-04T07:42:10.357Z,98739.62
2019-04-04T07:44:41.634Z,98744.86
2019-04-04T07:47:15.772Z,98742.70
2019-04-04T07:49:46.903Z,98754.03
2019-04-04T07:52:18.131Z,98748.38
2019-04-04T07:54:49.407Z,98746.21
2019-04-04T07:57:20.615Z,98744.44
2019-04-04T07:59:52.021Z,98731.72
2019-04-04T08:02:23.348Z,98719.09
2019-04-04T08:04:54.701Z,98725.66
2019-04-04T08:07:26.088Z,98719.53
2019-04-04T08:09:57.296Z,98718.67
2019-04-04T08:12:28.616Z,98727.41
2019-04-04T08:15:00.031Z,98721.66
2019-04-04T08:17:31.306Z,98723.38
2019-04-04T08:20:02.590Z,98721.14
2019-04-04T08:22:34.000Z,98720.73
2019-04-04T08:25:06.005Z,98714.31
2019-04-04T08:27:37.225Z,98705.09
2019-04-04T08:30:09.211Z,98717.36
2019-04-04T08:32:40.599Z,98722.15
2019-04-04T08:35:12.199Z,98715.62
2019-04-04T08:37:43.466Z,98700.34
2019-04-04T08:40:14.888Z,98705.56
2019-04-04T08:42:46.245Z,98709.53
2019-04-04T08:45:17.607Z,98717.38
2019-04-04T08:47:48.857Z,98736.58
2019-04-04T08:50:20.085Z,98734.72
2019-04-04T08:52:52.458Z,98733.88
2019-04-04T08:55:23.684Z,98736.50
2019-04-04T08:57:54.941Z,98732.17
2019-04-04T09:00:26.157Z,98725.19
2019-04-04T09:02:57.527Z,98723.51
2019-04-04T09:05:28.745Z,98703.47
2019-04-04T09:08:00.035Z,98692.55
2019-04-04T09:10:31.241Z,98695.13
2019-04-04T09:13:02.508Z,98682.04
2019-04-04T09:15:34.965Z,98678.14
2019-04-04T09:18:06.398Z,98676.44
2019-04-04T09:20:37.612Z,98670.77
2019-04-04T09:23:10.088Z,98676.38
2019-04-04T09:25:41.411Z,98670.70
2019-04-04T09:28:12.893Z,98670.72
2019-04-04T09:30:44.173Z,98661.57
2019-04-04T09:33:15.589Z,98665.52
2019-04-04T09:35:46.947Z,98664.68
2019-04-04T09:38:18.347Z,98672.09
2019-04-04T09:40:49.642Z,98678.20
2019-04-04T09:43:20.861Z,98692.61
2019-04-04T09:45:52.171Z,98706.56
2019-04-04T09:48:23.450Z,98727.53
2019-04-04T09:50:54.806Z,98727.99
2019-04-04T09:53:26.121Z,98736.75
2019-04-04T09:55:57.501Z,98744.61
2019-04-04T09:58:28.865Z,98743.31
2019-04-04T10:01:00.339Z,98738.97
2019-04-04T10:03:31.767Z,98744.66
2019-04-04T10:06:03.268Z,98758.63
2019-04-04T10:08:34.644Z,98752.98
2019-04-04T10:11:06.159Z,98759.13
2019-04-04T10:13:37.619Z,98765.68
2019-04-04T10:16:09.215Z,98767.91
2019-04-04T10:18:40.571Z,98762.69
2019-04-04T10:21:12.577Z,98774.95
2019-04-04T10:23:44.023Z,98775.39
2019-04-04T10:26:15.490Z,98783.67
2019-04-04T10:28:46.884Z,98789.78
2019-04-04T10:31:18.215Z,98790.67
2019-04-04T10:33:49.534Z,98792.43
2019-04-04T10:36:21.038Z,98788.59
2019-04-04T10:38:52.329Z,98793.86
2019-04-04T10:41:23.691Z,98796.05
2019-04-04T10:43:54.951Z,98787.31
2019-04-04T10:46:26.376Z,98793.02
2019-04-04T10:48:57.917Z,98789.53
2019-04-04T10:51:29.311Z,98780.81
2019-04-04T10:54:00.595Z,98790.88
2019-04-04T10:56:32.823Z,98776.49
2019-04-04T10:59:04.329Z,98767.75
2019-04-04T11:01:35.549Z,98767.75
2019-04-04T11:04:06.948Z,98773.87
2019-04-04T11:06:38.303Z,98773.00
2019-04-04T11:09:09.904Z,98769.06
2019-04-04T11:11:41.189Z,98772.55
2019-04-04T11:14:12.682Z,98777.82
2019-04-04T11:16:44.117Z,98771.70
2019-04-04T11:19:15.339Z,98763.44
2019-04-04T11:21:46.624Z,98754.69
2019-04-04T11:24:18.030Z,98746.39
2019-04-04T11:26:49.332Z,98747.27
2019-04-04T11:29:21.506Z,98767.81
2019-04-04T11:31:52.842Z,98752.94
2019-04-04T11:34:24.203Z,98743.75
2019-04-04T11:36:55.409Z,98752.06
2019-04-04T11:39:26.745Z,98761.24
2019-04-04T11:41:57.965Z,98770.89
2019-04-04T11:44:30.819Z,98763.88
2019-04-04T11:47:02.263Z,98765.64
2019-04-04T11:49:34.666Z,98784.88
2019-04-04T11:52:06.050Z,98806.31
2019-04-04T11:54:40.112Z,98813.31
2019-04-04T11:57:12.252Z,98808.06
2019-04-04T11:59:43.531Z,98802.80
2019-04-04T12:02:14.745Z,98803.27
2019-04-04T12:04:46.079Z,98815.52
2019-04-04T12:07:17.374Z,98820.77
2019-04-04T12:09:48.768Z,98823.83
2019-04-04T12:12:20.096Z,98828.20
2019-04-04T12:14:51.454Z,98830.36
2019-04-04T12:17:23.987Z,98838.23
2019-04-04T12:19:55.227Z,98843.95
2019-04-04T12:22:27.131Z,98848.77
2019-04-04T12:24:58.905Z,98860.13
2019-04-04T12:27:31.864Z,98864.50
2019-04-04T12:30:03.338Z,98864.51
2019-04-04T12:32:34.702Z,98878.95
2019-04-04T12:35:06.732Z,98889.89
2019-04-04T12:37:38.150Z,98884.20
2019-04-04T12:40:19.671Z,98892.93
2019-04-04T12:42:43.187Z,98885.05
2019-04-04T12:45:16.241Z,98890.75
2019-04-04T12:47:47.587Z,98888.13
2019-04-04T12:50:18.942Z,98888.58
2019-04-04T12:52:50.351Z,98889.01
2019-04-04T12:55:21.637Z,98887.26
2019-04-04T12:57:54.049Z,98884.20
2019-04-04T13:00:25.409Z,98876.31
2019-04-04T13:02:59.604Z,98876.75
2019-04-04T13:05:30.820Z,98891.62
2019-04-04T13:08:02.157Z,98894.67
2019-04-04T13:10:34.453Z,98885.02
2019-04-04T13:13:05.938Z,98875.38
2019-04-04T13:15:37.176Z,98870.09
2019-04-04T13:18:08.639Z,98857.80
2019-04-04T13:20:41.571Z,98862.59
2019-04-04T13:23:12.914Z,98860.84
2019-04-04T13:25:47.251Z,98853.00
2019-04-04T13:28:18.707Z,98852.98
2019-04-04T13:30:51.052Z,98870.97
2019-04-04T13:33:41.329Z,98877.55
2019-04-04T13:36:13.497Z,98885.02
2019-04-04T13:38:44.823Z,98899.94
2019-04-04T13:41:22.218Z,98903.88
2019-04-04T13:43:53.708Z,98891.61
2019-04-04T13:46:28.080Z,98899.05
2019-04-04T13:49:00.376Z,98917.88
2019-04-04T13:51:34.850Z,98913.48
2019-04-04T13:56:44.706Z,98909.46
2019-04-04T13:59:15.976Z,98892.75
2019-04-04T14:01:47.457Z,98891.88
2019-04-04T14:04:20.296Z,98900.19
2019-04-04T14:06:53.622Z,98904.47
2019-04-04T14:09:24.957Z,98899.05
2019-04-04T14:11:56.366Z,98902.37
2019-04-04T14:14:27.665Z,98883.36
2019-04-04T14:16:58.922Z,98899.23
2019-04-04T14:19:31.641Z,98897.47
2019-04-04T14:22:03.166Z,98889.75
2019-04-04T14:24:34.582Z,98885.00
2019-04-04T14:27:06.058Z,98885.95
2019-04-04T14:29:37.561Z,98894.41
2019-04-04T14:32:10.018Z,98905.81
2019-04-04T14:34:43.387Z,98918.11
2019-04-04T14:37:14.889Z,98926.49
2019-04-04T14:39:49.231Z,98926.50
2019-04-04T14:42:20.443Z,98931.34
2019-04-04T14:44:51.710Z,98925.18
2019-04-04T14:47:26.330Z,98940.55
2019-04-04T14:49:58.857Z,98940.09
2019-04-04T14:52:30.123Z,98947.08
2019-04-04T14:55:01.426Z,98945.76
2019-04-04T14:57:32.690Z,98952.34
2019-04-04T15:00:06.851Z,98956.75
2019-04-04T15:02:38.221Z,98948.89
2019-04-04T15:05:09.676Z,98932.21
2019-04-04T15:07:41.000Z,98935.30
2019-04-04T15:10:17.343Z,98942.30
2019-04-04T15:12:53.172Z,98959.84
2019-04-04T15:15:26.265Z,98968.61
2019-04-04T15:17:57.637Z,98989.69
2019-04-04T15:20:29.088Z,98998.02
2019-04-04T15:23:00.675Z,99007.22
2019-04-04T15:25:33.971Z,99010.73
2019-04-04T15:28:05.396Z,99011.61
2019-04-04T15:30:36.805Z,99012.05
2019-04-04T15:33:11.036Z,99012.03
2019-04-04T15:35:42.454Z,99019.07
2019-04-04T15:38:16.804Z,99013.83
2019-04-04T15:40:51.377Z,99013.84
2019-04-04T15:43:22.771Z,99003.34
2019-04-04T15:45:55.824Z,98998.52
2019-04-04T15:48:30.269Z,99006.41
2019-04-04T15:51:05.977Z,99002.03
2019-04-04T15:53:37.257Z,98995.02
2019-04-04T15:56:10.977Z,98994.58
2019-04-04T15:58:42.333Z,98998.95
2019-04-04T16:01:18.379Z,99003.77
2019-04-04T16:04:07.949Z,99007.70
2019-04-04T16:06:41.025Z,99015.14
2019-04-04T16:09:15.288Z,99015.59
2019-04-04T16:11:49.681Z,99007.27
2019-04-04T16:14:20.288Z,99000.70
2019-04-04T16:16:52.123Z,98991.95
2019-04-04T16:19:28.140Z,98985.39
2019-04-04T16:22:01.259Z,98988.02
2019-04-04T16:24:35.185Z,98985.81
2019-04-04T16:27:09.344Z,99015.61
2019-04-04T16:29:40.705Z,99042.78
2019-04-04T16:32:11.993Z,99055.06
2019-04-04T16:34:44.924Z,99037.09
2019-04-04T16:37:16.396Z,99009.48
2019-04-04T16:39:47.597Z,99004.67
2019-04-04T16:42:18.926Z,99027.02
2019-04-04T16:44:50.151Z,99021.75
2019-04-04T16:47:21.474Z,99013.87
2019-04-04T16:49:52.755Z,99023.95
2019-04-04T16:52:24.102Z,99039.72
2019-04-04T16:55:01.505Z,99059.44
2019-04-04T16:57:43.475Z,99078.72
2019-04-04T17:00:17.203Z,99092.75
2019-04-04T17:02:48.689Z,99104.14
2019-04-04T17:05:20.160Z,99120.36
2019-04-04T17:07:51.441Z,99125.17
2019-04-04T17:10:22.872Z,99123.86
2019-04-04T17:12:55.187Z,99127.36
2019-04-04T17:15:26.553Z,99126.91
2019-04-04T17:17:58.020Z,99129.11
2019-04-04T17:20:29.561Z,99122.97
2019-04-04T17:23:01.137Z,99107.63
2019-04-04T17:25:32.521Z,99099.30
2019-04-04T17:28:04.572Z,99082.20
2019-04-04T17:30:38.115Z,99071.69
2019-04-04T17:33:09.583Z,99071.68
2019-04-04T17:35:40.912Z,99077.81
2019-04-04T17:38:12.343Z,99076.48
2019-04-04T17:40:43.622Z,99068.61
2019-04-04T17:43:15.191Z,99065.55
2019-04-04T17:45:46.565Z,99063.35
2019-04-04T17:48:17.867Z,99069.92
2019-04-04T17:50:49.389Z,99077.80
2019-04-04T17:53:22.088Z,99090.05
2019-04-04T17:55:55.442Z,99096.61
2019-04-04T17:58:27.726Z,99104.06
2019-04-04T18:00:59.108Z,99113.24
2019-04-04T18:03:30.488Z,99116.30
2019-04-04T18:06:01.799Z,99115.86
2019-04-04T18:08:34.289Z,99112.34
2019-04-04T18:11:05.716Z,99114.08
2019-04-04T18:13:44.698Z,99110.57
2019-04-04T18:16:27.822Z,99120.65
2019-04-04T18:18:58.491Z,99129.84
2019-04-04T18:21:33.068Z,99135.95
2019-04-04T18:24:06.408Z,99144.70
2019-04-04T18:26:39.023Z,99139.02
2019-04-04T18:29:10.487Z,99134.63
2019-04-04T18:31:41.862Z,99141.19
2019-04-04T18:34:17.210Z,99141.19
2019-04-04T18:36:49.748Z,99148.17
2019-04-04T18:39:21.807Z,99141.59
2019-04-04T18:41:53.281Z,99142.47
2019-04-04T18:44:24.715Z,99164.79
2019-04-04T18:46:56.609Z,99175.70
2019-04-04T18:49:28.496Z,99182.69
2019-04-04T18:52:01.646Z,99191.88
2019-04-04T18:54:35.143Z,99195.81
2019-04-04T18:57:06.585Z,99183.55
2019-04-04T18:59:38.535Z,99176.11
2019-04-04T19:02:10.054Z,99169.10
2019-04-04T19:04:41.422Z,99163.40
2019-04-04T19:07:12.847Z,99165.57
2019-04-04T19:09:44.332Z,99173.89
2019-04-04T19:12:15.933Z,99179.13
2019-04-04T19:14:47.269Z,99179.13
2019-04-04T19:17:18.529Z,99181.74
2019-04-04T19:20:13.827Z,99189.19
2019-04-04T19:22:45.221Z,99190.51
2019-04-04T19:25:16.847Z,99202.77
2019-04-04T19:27:48.340Z,99215.87
2019-04-04T19:30:20.312Z,99214.57
2019-04-04T19:32:51.727Z,99221.14
2019-04-04T19:35:23.342Z,99217.63
2019-04-04T19:38:00.386Z,99218.51
2019-04-04T19:40:29.243Z,99225.08
2019-04-04T19:43:20.586Z,99227.28
2019-04-04T19:45:52.099Z,99223.34
2019-04-04T19:48:23.544Z,99218.53
2019-04-04T19:50:55.012Z,99221.17
2019-04-04T19:53:26.521Z,99218.97
2019-04-04T19:55:58.101Z,99221.14
2019-04-04T19:58:29.435Z,99221.09
2019-04-04T20:01:01.005Z,99226.34
2019-04-04T20:03:32.581Z,99226.34
2019-04-04T20:06:04.982Z,99223.69
2019-04-04T20:08:36.483Z,99233.27
2019-04-04T20:11:07.872Z,99242.44
2019-04-04T20:13:39.803Z,99241.56
2019-04-04T20:16:12.430Z,99239.36
2019-04-04T20:18:44.112Z,99242.41
2019-04-04T20:21:15.801Z,99244.60
2019-04-04T20:23:47.097Z,99245.44
2019-04-04T20:26:19.488Z,99255.48
2019-04-04T20:28:50.879Z,99259.38
2019-04-04T20:31:22.393Z,99266.35
2019-04-04T20:34:01.552Z,99267.20
2019-04-04T20:36:26.853Z,99262.37
2019-04-04T20:38:58.115Z,99267.16
2019-04-04T20:41:31.337Z,99266.70
2019-04-04T20:44:02.810Z,99264.53
2019-04-04T20:46:34.135Z,99257.92
2019-04-04T20:49:05.585Z,99247.91
2019-04-04T20:51:36.975Z,99248.34
2019-04-04T20:54:08.294Z,99246.61
2019-04-04T20:56:39.601Z,99245.33
2019-04-04T20:59:10.906Z,99243.59
2019-04-04T21:01:42.334Z,99240.04
2019-04-04T21:04:13.813Z,99242.23
2019-04-04T21:06:45.194Z,99250.47
2019-04-04T21:09:16.491Z,99259.20
2019-04-04T21:11:47.886Z,99269.27
2019-04-04T21:14:19.288Z,99271.95
2019-04-04T21:16:50.787Z,99282.41
2019-04-04T21:19:22.129Z,99284.59
2019-04-04T21:21:53.489Z,99290.72
2019-04-04T21:24:24.840Z,99288.03
2019-04-04T21:26:57.517Z,99289.34
2019-04-04T21:29:28.892Z,99292.33
2019-04-04T21:32:00.231Z,99292.72
2019-04-04T21:34:31.650Z,99290.55
2019-04-04T21:37:02.937Z,99297.17
2019-04-04T21:39:34.254Z,99298.05
2019-04-04T21:42:05.974Z,99302.85
2019-04-04T21:44:37.333Z,99305.05
2019-04-04T21:47:08.608Z,99302.02
2019-04-04T21:49:39.864Z,99301.19
2019-04-04T21:52:11.101Z,99301.19
2019-04-04T21:54:42.388Z,99300.75
2019-04-04T21:57:14.754Z,99291.15
2019-04-04T21:59:46.106Z,99295.95
2019-04-04T22:02:17.814Z,99299.86
2019-04-04T22:04:49.096Z,99297.19
2019-04-04T22:07:20.510Z,99300.66
2019-04-04T22:09:51.859Z,99304.12
2019-04-04T22:12:23.265Z,99305.84
2019-04-04T22:14:54.486Z,99305.38
2019-04-04T22:17:25.813Z,99309.25
2019-04-04T22:19:57.061Z,99313.12
2019-04-04T22:22:28.446Z,99311.77
2019-04-04T22:24:59.704Z,99312.19
2019-04-04T22:27:31.121Z,99318.77
2019-04-04T22:30:02.365Z,99322.28
2019-04-04T22:32:33.864Z,99323.11
2019-04-04T22:35:07.108Z,99323.97
2019-04-04T22:37:38.454Z,99323.54
2019-04-04T22:40:09.766Z,99319.61
2019-04-04T22:42:41.275Z,99317.88
2019-04-04T22:45:13.671Z,99328.77
2019-04-04T22:47:45.069Z,99335.28
2019-04-04T22:50:16.431Z,99335.68
2019-04-04T22:52:49.069Z,99334.83
2019-04-04T22:55:20.462Z,99347.57
2019-04-04T22:57:51.738Z,99359.34
2019-04-04T23:00:23.037Z,99361.98
2019-04-04T23:02:54.463Z,99359.83
2019-04-04T23:05:25.769Z,99364.22
2019-04-04T23:07:57.201Z,99371.20
2019-04-04T23:10:28.506Z,99369.05
2019-04-04T23:12:59.793Z,99358.09
2019-04-04T23:15:31.113Z,99353.24
2019-04-04T23:18:02.460Z,99351.09
2019-04-04T23:20:33.792Z,99345.39
2019-04-04T23:23:05.153Z,99341.95
2019-04-04T23:25:36.459Z,99335.41
2019-04-04T23:28:08.195Z,99342.02
2019-04-04T23:30:39.492Z,99334.61
2019-04-04T23:33:10.837Z,99329.81
2019-04-04T23:35:42.046Z,99332.89
2019-04-04T23:38:13.457Z,99327.63
2019-04-04T23:40:44.684Z,99321.47
2019-04-04T23:43:16.025Z,99315.33
2019-04-04T23:45:47.261Z,99318.81
2019-04-04T23:48:18.611Z,99315.31
2019-04-04T23:50:49.843Z,99315.74
2019-04-04T23:53:22.121Z,99314.43
2019-04-04T23:55:53.450Z,99314.87
2019-04-04T23:58:24.808Z,99310.06
